AWE781 KPDX-KSNA
Flight info
| Callsign | AWE781 |
|---|---|
| Flight time | 1h 58m |
| Altitude | 37000 |
| Route | HRMNS6 HYJOE BORDY COLOM REBRG OHSEA3 |
| Aircraft | A320/M-SDE3FGHIRWY/LB1 |
Departure
| Time | 2026-05-07 23:16 |
|---|---|
| Airport | Portland International Airport (KPDX) |
Arrival
| Time | 2026-05-08 01:14 |
|---|---|
| Airport | John Wayne Orange County International Airport (KSNA) |
| Time | Latitude | Longitude | Altitude | Speed | Heading |
|---|---|---|---|---|---|
| 2026-05-07 22:46 | 45.59005 | -122.59793 | 40 ft | 0 kts | 209° |
| 2026-05-07 23:07 | 45.59006 | -122.59792 | 58 ft | 1 kts | 209° |
| 2026-05-07 23:07 | 45.59027 | -122.59776 | 38 ft | 4 kts | 210° |
| 2026-05-07 23:07 | 45.59048 | -122.59754 | 37 ft | 4 kts | 233° |
| 2026-05-07 23:08 | 45.59056 | -122.59722 | 36 ft | 4 kts | 292° |
| 2026-05-07 23:08 | 45.59054 | -122.59715 | 36 ft | 0 kts | 301° |
| 2026-05-07 23:11 | 45.59055 | -122.59716 | 36 ft | 0 kts | 301° |
| 2026-05-07 23:11 | 45.59062 | -122.59733 | 37 ft | 12 kts | 301° |
| 2026-05-07 23:11 | 45.59121 | -122.59884 | 40 ft | 19 kts | 298° |
| 2026-05-07 23:11 | 45.59125 | -122.60054 | 38 ft | 16 kts | 238° |
| 2026-05-07 23:12 | 45.59037 | -122.60142 | 38 ft | 16 kts | 209° |
| 2026-05-07 23:12 | 45.58918 | -122.60223 | 40 ft | 19 kts | 178° |
| 2026-05-07 23:12 | 45.58841 | -122.60092 | 39 ft | 18 kts | 119° |
| 2026-05-07 23:12 | 45.58775 | -122.59927 | 39 ft | 19 kts | 120° |
| 2026-05-07 23:13 | 45.58700 | -122.59730 | 41 ft | 26 kts | 118° |
| 2026-05-07 23:13 | 45.58610 | -122.59498 | 40 ft | 27 kts | 119° |
| 2026-05-07 23:13 | 45.58528 | -122.59286 | 38 ft | 24 kts | 118° |
| 2026-05-07 23:13 | 45.58446 | -122.59076 | 40 ft | 25 kts | 119° |
| 2026-05-07 23:14 | 45.58360 | -122.58857 | 38 ft | 26 kts | 119° |
| 2026-05-07 23:14 | 45.58272 | -122.58634 | 40 ft | 26 kts | 119° |
| 2026-05-07 23:14 | 45.58191 | -122.58426 | 40 ft | 24 kts | 118° |
| 2026-05-07 23:14 | 45.58083 | -122.58404 | 39 ft | 18 kts | 242° |
| 2026-05-07 23:15 | 45.58121 | -122.58563 | 41 ft | 17 kts | 299° |
| 2026-05-07 23:15 | 45.58220 | -122.58816 | 41 ft | 58 kts | 299° |
| 2026-05-07 23:15 | 45.58527 | -122.59605 | 42 ft | 121 kts | 298° |
| 2026-05-07 23:15 | 45.59017 | -122.60868 | 88 ft | 162 kts | 300° |
| 2026-05-07 23:16 | 45.59581 | -122.62291 | 533 ft | 171 kts | 302° |
| 2026-05-07 23:16 | 45.60226 | -122.63762 | 1150 ft | 177 kts | 302° |
| 2026-05-07 23:16 | 45.60868 | -122.65267 | 1788 ft | 179 kts | 301° |
| 2026-05-07 23:16 | 45.61542 | -122.66858 | 2149 ft | 198 kts | 301° |
| 2026-05-07 23:17 | 45.62298 | -122.68655 | 2431 ft | 223 kts | 300° |
| 2026-05-07 23:17 | 45.63125 | -122.70661 | 2819 ft | 247 kts | 300° |
| 2026-05-07 23:17 | 45.64018 | -122.72838 | 3498 ft | 257 kts | 300° |
| 2026-05-07 23:17 | 45.64926 | -122.75060 | 4336 ft | 261 kts | 300° |
| 2026-05-07 23:18 | 45.65850 | -122.77330 | 5195 ft | 265 kts | 299° |
| 2026-05-07 23:18 | 45.66644 | -122.79722 | 6015 ft | 269 kts | 286° |
| 2026-05-07 23:18 | 45.66922 | -122.82368 | 6806 ft | 272 kts | 269° |
| 2026-05-07 23:18 | 45.66636 | -122.85041 | 7610 ft | 274 kts | 253° |
| 2026-05-07 23:19 | 45.66070 | -122.87655 | 8441 ft | 276 kts | 253° |
| 2026-05-07 23:19 | 45.65250 | -122.90184 | 9250 ft | 281 kts | 232° |
| 2026-05-07 23:19 | 45.63714 | -122.91918 | 10018 ft | 289 kts | 205° |
| 2026-05-07 23:19 | 45.61694 | -122.92438 | 10467 ft | 310 kts | 177° |
| 2026-05-07 23:20 | 45.59494 | -122.91791 | 10666 ft | 336 kts | 167° |
| 2026-05-07 23:20 | 45.57175 | -122.90848 | 10864 ft | 358 kts | 165° |
| 2026-05-07 23:20 | 45.54770 | -122.89734 | 11365 ft | 368 kts | 160° |
| 2026-05-07 23:20 | 45.52502 | -122.87969 | 11981 ft | 376 kts | 148° |
| 2026-05-07 23:21 | 45.50289 | -122.85936 | 12621 ft | 381 kts | 150° |
| 2026-05-07 23:21 | 45.48020 | -122.83941 | 13247 ft | 385 kts | 151° |
| 2026-05-07 23:21 | 45.45709 | -122.81969 | 13866 ft | 390 kts | 152° |
| 2026-05-07 23:21 | 45.43359 | -122.79993 | 14421 ft | 394 kts | 152° |
| 2026-05-07 23:22 | 45.40985 | -122.78000 | 15010 ft | 397 kts | 152° |
| 2026-05-07 23:22 | 45.38598 | -122.75987 | 15585 ft | 401 kts | 152° |
| 2026-05-07 23:22 | 45.36193 | -122.73946 | 16159 ft | 404 kts | 152° |
| 2026-05-07 23:22 | 45.33775 | -122.71883 | 16745 ft | 407 kts | 152° |
| 2026-05-07 23:23 | 45.31338 | -122.69802 | 17321 ft | 410 kts | 152° |
| 2026-05-07 23:23 | 45.28881 | -122.67704 | 17893 ft | 413 kts | 152° |
| 2026-05-07 23:23 | 45.26406 | -122.65595 | 18465 ft | 417 kts | 152° |
| 2026-05-07 23:23 | 45.23909 | -122.63472 | 18970 ft | 420 kts | 152° |
| 2026-05-07 23:24 | 45.21392 | -122.61339 | 19472 ft | 423 kts | 152° |
| 2026-05-07 23:24 | 45.18864 | -122.59200 | 19969 ft | 426 kts | 152° |
| 2026-05-07 23:24 | 45.16305 | -122.57035 | 20453 ft | 429 kts | 152° |
| 2026-05-07 23:24 | 45.13734 | -122.54865 | 20930 ft | 432 kts | 152° |
| 2026-05-07 23:25 | 45.11147 | -122.52682 | 21389 ft | 435 kts | 152° |
| 2026-05-07 23:25 | 45.08541 | -122.50481 | 21850 ft | 437 kts | 152° |
| 2026-05-07 23:25 | 45.06769 | -122.48984 | 22151 ft | 439 kts | 152° |
| 2026-05-07 23:25 | 45.04171 | -122.46794 | 22583 ft | 442 kts | 152° |
| 2026-05-07 23:26 | 45.01489 | -122.44534 | 23016 ft | 445 kts | 152° |
| 2026-05-07 23:26 | 44.98819 | -122.42288 | 23434 ft | 448 kts | 152° |
| 2026-05-07 23:26 | 44.96126 | -122.40051 | 23810 ft | 450 kts | 154° |
| 2026-05-07 23:26 | 44.93277 | -122.38249 | 24131 ft | 448 kts | 164° |
| 2026-05-07 23:27 | 44.87331 | -122.35484 | 24765 ft | 452 kts | 165° |
| 2026-05-07 23:27 | 44.84335 | -122.34088 | 25084 ft | 454 kts | 165° |
| 2026-05-07 23:27 | 44.81331 | -122.32686 | 25412 ft | 456 kts | 165° |
| 2026-05-07 23:28 | 44.78315 | -122.31277 | 25727 ft | 458 kts | 165° |
| 2026-05-07 23:28 | 44.75282 | -122.29863 | 26039 ft | 460 kts | 165° |
| 2026-05-07 23:28 | 44.72237 | -122.28447 | 26345 ft | 462 kts | 165° |
| 2026-05-07 23:28 | 44.69183 | -122.27034 | 26639 ft | 463 kts | 165° |
| 2026-05-07 23:29 | 44.66113 | -122.25617 | 26914 ft | 465 kts | 165° |
| 2026-05-07 23:29 | 44.63033 | -122.24194 | 27196 ft | 467 kts | 165° |
| 2026-05-07 23:29 | 44.59944 | -122.22764 | 27468 ft | 469 kts | 165° |
| 2026-05-07 23:29 | 44.56837 | -122.21324 | 27728 ft | 471 kts | 165° |
| 2026-05-07 23:30 | 44.53716 | -122.19879 | 27983 ft | 473 kts | 165° |
| 2026-05-07 23:30 | 44.50587 | -122.18437 | 28247 ft | 475 kts | 165° |
| 2026-05-07 23:30 | 44.47439 | -122.16988 | 28485 ft | 477 kts | 165° |
| 2026-05-07 23:30 | 44.44289 | -122.15536 | 28716 ft | 478 kts | 165° |
| 2026-05-07 23:31 | 44.41115 | -122.14077 | 28934 ft | 480 kts | 165° |
| 2026-05-07 23:31 | 44.37937 | -122.12624 | 29222 ft | 481 kts | 165° |
| 2026-05-07 23:31 | 44.34762 | -122.11173 | 29561 ft | 480 kts | 165° |
| 2026-05-07 23:31 | 44.31593 | -122.09725 | 29882 ft | 479 kts | 165° |
| 2026-05-07 23:32 | 44.28429 | -122.08278 | 30222 ft | 479 kts | 165° |
| 2026-05-07 23:32 | 44.25262 | -122.06829 | 30478 ft | 478 kts | 165° |
| 2026-05-07 23:32 | 44.22104 | -122.05388 | 30713 ft | 478 kts | 165° |
| 2026-05-07 23:32 | 44.18943 | -122.03949 | 30973 ft | 478 kts | 165° |
| 2026-05-07 23:33 | 44.15782 | -122.02510 | 31230 ft | 477 kts | 165° |
| 2026-05-07 23:33 | 44.12629 | -122.01073 | 31499 ft | 477 kts | 165° |
| 2026-05-07 23:33 | 44.09472 | -121.99638 | 31760 ft | 477 kts | 165° |
| 2026-05-07 23:33 | 44.06323 | -121.98212 | 32042 ft | 476 kts | 165° |
| 2026-05-07 23:34 | 44.03166 | -121.96789 | 32301 ft | 476 kts | 165° |
| 2026-05-07 23:34 | 43.99976 | -121.95352 | 32585 ft | 476 kts | 165° |
| 2026-05-07 23:34 | 43.96834 | -121.93931 | 32867 ft | 475 kts | 165° |
| 2026-05-07 23:34 | 43.93688 | -121.92506 | 33148 ft | 475 kts | 165° |
| 2026-05-07 23:35 | 43.90548 | -121.91083 | 33413 ft | 474 kts | 165° |
| 2026-05-07 23:35 | 43.87416 | -121.89668 | 33682 ft | 473 kts | 165° |
| 2026-05-07 23:35 | 43.84256 | -121.88448 | 33951 ft | 470 kts | 172° |
| 2026-05-07 23:35 | 43.81061 | -121.87530 | 34211 ft | 469 kts | 172° |
| 2026-05-07 23:36 | 43.77869 | -121.86611 | 34462 ft | 468 kts | 172° |
| 2026-05-07 23:36 | 43.74683 | -121.85691 | 34694 ft | 467 kts | 171° |
| 2026-05-07 23:36 | 43.71504 | -121.84765 | 34924 ft | 467 kts | 171° |
| 2026-05-07 23:36 | 43.68329 | -121.83842 | 35135 ft | 466 kts | 171° |
| 2026-05-07 23:37 | 43.65157 | -121.82923 | 35351 ft | 465 kts | 172° |
| 2026-05-07 23:37 | 43.61990 | -121.82009 | 35562 ft | 465 kts | 172° |
| 2026-05-07 23:37 | 43.58829 | -121.81094 | 35773 ft | 464 kts | 171° |
| 2026-05-07 23:37 | 43.55672 | -121.80180 | 35982 ft | 463 kts | 172° |
| 2026-05-07 23:38 | 43.52516 | -121.79270 | 36205 ft | 463 kts | 172° |
| 2026-05-07 23:38 | 43.49372 | -121.78366 | 36397 ft | 462 kts | 172° |
| 2026-05-07 23:38 | 43.46222 | -121.77461 | 36570 ft | 462 kts | 172° |
| 2026-05-07 23:38 | 43.43080 | -121.76556 | 36741 ft | 461 kts | 171° |
| 2026-05-07 23:39 | 43.39947 | -121.75655 | 36933 ft | 460 kts | 171° |
| 2026-05-07 23:39 | 43.36813 | -121.74755 | 37039 ft | 461 kts | 171° |
| 2026-05-07 23:39 | 43.30523 | -121.72953 | 37053 ft | 462 kts | 171° |
| 2026-05-07 23:40 | 43.24234 | -121.71156 | 37056 ft | 462 kts | 171° |
| 2026-05-07 23:40 | 43.17946 | -121.69370 | 37050 ft | 462 kts | 171° |
| 2026-05-07 23:41 | 43.11660 | -121.67584 | 37048 ft | 461 kts | 171° |
| 2026-05-07 23:41 | 43.05371 | -121.65791 | 37050 ft | 461 kts | 171° |
| 2026-05-07 23:42 | 42.99082 | -121.64002 | 37049 ft | 462 kts | 171° |
| 2026-05-07 23:42 | 42.92751 | -121.62214 | 37049 ft | 462 kts | 171° |
| 2026-05-07 23:43 | 42.86459 | -121.60440 | 37056 ft | 462 kts | 171° |
| 2026-05-07 23:43 | 42.80167 | -121.58674 | 37058 ft | 461 kts | 171° |
| 2026-05-07 23:44 | 42.73885 | -121.56918 | 37056 ft | 461 kts | 171° |
| 2026-05-07 23:44 | 42.67605 | -121.55151 | 37057 ft | 461 kts | 171° |
| 2026-05-07 23:45 | 42.61329 | -121.53392 | 37058 ft | 460 kts | 171° |
| 2026-05-07 23:45 | 42.55052 | -121.51649 | 37059 ft | 460 kts | 171° |
| 2026-05-07 23:46 | 42.48778 | -121.49901 | 37061 ft | 460 kts | 171° |
| 2026-05-07 23:46 | 42.42495 | -121.48154 | 37066 ft | 460 kts | 171° |
| 2026-05-07 23:47 | 42.36220 | -121.46408 | 37077 ft | 460 kts | 171° |
| 2026-05-07 23:47 | 42.29948 | -121.44667 | 37085 ft | 460 kts | 171° |
| 2026-05-07 23:48 | 42.23679 | -121.42939 | 37087 ft | 460 kts | 171° |
| 2026-05-07 23:48 | 42.17413 | -121.41215 | 37086 ft | 460 kts | 171° |
| 2026-05-07 23:49 | 42.11144 | -121.39488 | 37082 ft | 459 kts | 171° |
| 2026-05-07 23:49 | 42.04884 | -121.37761 | 37068 ft | 459 kts | 171° |
| 2026-05-07 23:50 | 41.98621 | -121.36043 | 37054 ft | 459 kts | 171° |
| 2026-05-07 23:50 | 41.92358 | -121.34335 | 37040 ft | 459 kts | 171° |
| 2026-05-07 23:51 | 41.86099 | -121.32633 | 37038 ft | 459 kts | 171° |
| 2026-05-07 23:51 | 41.79847 | -121.30932 | 37040 ft | 458 kts | 171° |
| 2026-05-07 23:52 | 41.73590 | -121.29232 | 37047 ft | 458 kts | 171° |
| 2026-05-07 23:52 | 41.67344 | -121.27535 | 37053 ft | 458 kts | 171° |
| 2026-05-07 23:53 | 41.61093 | -121.25841 | 37057 ft | 458 kts | 171° |
| 2026-05-07 23:53 | 41.54809 | -121.24138 | 37058 ft | 457 kts | 171° |
| 2026-05-07 23:54 | 41.48571 | -121.22457 | 37063 ft | 457 kts | 171° |
| 2026-05-07 23:54 | 41.42337 | -121.20784 | 37068 ft | 457 kts | 171° |
| 2026-05-07 23:55 | 41.36108 | -121.19111 | 37067 ft | 457 kts | 171° |
| 2026-05-07 23:55 | 41.29880 | -121.17444 | 37063 ft | 456 kts | 171° |
| 2026-05-07 23:56 | 41.23654 | -121.15778 | 37060 ft | 456 kts | 171° |
| 2026-05-07 23:56 | 41.17434 | -121.14110 | 37060 ft | 456 kts | 171° |
| 2026-05-07 23:57 | 41.11216 | -121.12451 | 37057 ft | 456 kts | 171° |
| 2026-05-07 23:57 | 41.05003 | -121.10793 | 37063 ft | 455 kts | 171° |
| 2026-05-07 23:58 | 40.98775 | -121.09342 | 37068 ft | 453 kts | 178° |
| 2026-05-07 23:58 | 40.92491 | -121.08674 | 37075 ft | 453 kts | 178° |
| 2026-05-07 23:59 | 40.87277 | -121.08115 | 37081 ft | 452 kts | 177° |
| 2026-05-07 23:59 | 40.80962 | -121.07436 | 37090 ft | 452 kts | 178° |
| 2026-05-08 00:00 | 40.74699 | -121.06773 | 37100 ft | 451 kts | 178° |
| 2026-05-08 00:00 | 40.68440 | -121.06113 | 37098 ft | 451 kts | 177° |
| 2026-05-08 00:01 | 40.62179 | -121.05444 | 37097 ft | 451 kts | 177° |
| 2026-05-08 00:01 | 40.55928 | -121.04777 | 37101 ft | 450 kts | 177° |
| 2026-05-08 00:02 | 40.49683 | -121.04118 | 37102 ft | 450 kts | 177° |
| 2026-05-08 00:02 | 40.43442 | -121.03453 | 37105 ft | 450 kts | 177° |
| 2026-05-08 00:03 | 40.37202 | -121.02796 | 37106 ft | 450 kts | 177° |
| 2026-05-08 00:03 | 40.30967 | -121.02139 | 37102 ft | 449 kts | 177° |
| 2026-05-08 00:04 | 40.24738 | -121.01491 | 37098 ft | 449 kts | 177° |
| 2026-05-08 00:04 | 40.18521 | -121.00844 | 37095 ft | 448 kts | 177° |
| 2026-05-08 00:05 | 40.12310 | -121.00183 | 37101 ft | 448 kts | 177° |
| 2026-05-08 00:05 | 40.06106 | -120.99534 | 37098 ft | 447 kts | 177° |
| 2026-05-08 00:06 | 39.99908 | -120.98888 | 37099 ft | 446 kts | 177° |
| 2026-05-08 00:06 | 39.93676 | -120.98250 | 37103 ft | 446 kts | 177° |
| 2026-05-08 00:07 | 39.87497 | -120.97612 | 37102 ft | 445 kts | 177° |
| 2026-05-08 00:07 | 39.81323 | -120.96963 | 37102 ft | 445 kts | 177° |
| 2026-05-08 00:08 | 39.75152 | -120.96320 | 37103 ft | 444 kts | 177° |
| 2026-05-08 00:08 | 39.68992 | -120.95686 | 37104 ft | 444 kts | 177° |
| 2026-05-08 00:09 | 39.62835 | -120.95057 | 37097 ft | 444 kts | 177° |
| 2026-05-08 00:09 | 39.56680 | -120.94422 | 37098 ft | 444 kts | 177° |
| 2026-05-08 00:10 | 39.50527 | -120.93787 | 37103 ft | 444 kts | 177° |
| 2026-05-08 00:10 | 39.44372 | -120.93153 | 37113 ft | 444 kts | 177° |
| 2026-05-08 00:11 | 39.38220 | -120.92519 | 37125 ft | 444 kts | 177° |
| 2026-05-08 00:11 | 39.32064 | -120.91885 | 37139 ft | 444 kts | 177° |
| 2026-05-08 00:12 | 39.25906 | -120.91259 | 37145 ft | 444 kts | 177° |
| 2026-05-08 00:12 | 39.19743 | -120.90634 | 37145 ft | 444 kts | 177° |
| 2026-05-08 00:13 | 39.13583 | -120.90011 | 37137 ft | 444 kts | 177° |
| 2026-05-08 00:13 | 39.07415 | -120.89390 | 37112 ft | 445 kts | 177° |
| 2026-05-08 00:14 | 39.01243 | -120.88765 | 37074 ft | 445 kts | 177° |
| 2026-05-08 00:14 | 38.95068 | -120.88127 | 37081 ft | 445 kts | 176° |
| 2026-05-08 00:15 | 38.88844 | -120.87498 | 37079 ft | 446 kts | 176° |
| 2026-05-08 00:15 | 38.82706 | -120.86404 | 37134 ft | 448 kts | 165° |
| 2026-05-08 00:16 | 38.76816 | -120.83770 | 37149 ft | 449 kts | 161° |
| 2026-05-08 00:16 | 38.70932 | -120.81077 | 37151 ft | 449 kts | 161° |
| 2026-05-08 00:17 | 38.65050 | -120.78394 | 37155 ft | 449 kts | 162° |
| 2026-05-08 00:17 | 38.59154 | -120.75717 | 37142 ft | 449 kts | 162° |
| 2026-05-08 00:18 | 38.53261 | -120.73050 | 37091 ft | 450 kts | 162° |
| 2026-05-08 00:18 | 38.47367 | -120.70382 | 37101 ft | 450 kts | 162° |
| 2026-05-08 00:19 | 38.41473 | -120.67707 | 37099 ft | 450 kts | 162° |
| 2026-05-08 00:19 | 38.35573 | -120.65040 | 37098 ft | 450 kts | 162° |
| 2026-05-08 00:20 | 38.29674 | -120.62391 | 37095 ft | 450 kts | 162° |
| 2026-05-08 00:20 | 38.23777 | -120.59747 | 37081 ft | 450 kts | 162° |
| 2026-05-08 00:21 | 38.17878 | -120.57092 | 37080 ft | 450 kts | 162° |
| 2026-05-08 00:21 | 38.11975 | -120.54432 | 37079 ft | 450 kts | 162° |
| 2026-05-08 00:22 | 38.06064 | -120.51787 | 37074 ft | 450 kts | 162° |
| 2026-05-08 00:22 | 38.00151 | -120.49151 | 37067 ft | 451 kts | 162° |
| 2026-05-08 00:23 | 37.94227 | -120.46513 | 37060 ft | 451 kts | 162° |
| 2026-05-08 00:23 | 37.88303 | -120.43872 | 37052 ft | 452 kts | 162° |
| 2026-05-08 00:24 | 37.82374 | -120.41235 | 37047 ft | 452 kts | 162° |
| 2026-05-08 00:24 | 37.76404 | -120.38581 | 37044 ft | 452 kts | 162° |
| 2026-05-08 00:25 | 37.70468 | -120.35950 | 37044 ft | 452 kts | 162° |
| 2026-05-08 00:25 | 37.64525 | -120.33323 | 37038 ft | 452 kts | 162° |
| 2026-05-08 00:26 | 37.58584 | -120.30703 | 37037 ft | 453 kts | 162° |
| 2026-05-08 00:26 | 37.52635 | -120.28085 | 37036 ft | 453 kts | 162° |
| 2026-05-08 00:27 | 37.46687 | -120.25464 | 37034 ft | 453 kts | 162° |
| 2026-05-08 00:27 | 37.40735 | -120.22848 | 37029 ft | 453 kts | 162° |
| 2026-05-08 00:28 | 37.34787 | -120.20238 | 37024 ft | 453 kts | 162° |
| 2026-05-08 00:28 | 37.28833 | -120.17635 | 37026 ft | 453 kts | 162° |
| 2026-05-08 00:29 | 37.22867 | -120.15035 | 37031 ft | 454 kts | 162° |
| 2026-05-08 00:29 | 37.16908 | -120.12428 | 37030 ft | 454 kts | 162° |
| 2026-05-08 00:30 | 37.10948 | -120.09826 | 37034 ft | 454 kts | 162° |
| 2026-05-08 00:30 | 37.04975 | -120.07230 | 37036 ft | 454 kts | 162° |
| 2026-05-08 00:31 | 36.99072 | -120.04672 | 37037 ft | 454 kts | 162° |
| 2026-05-08 00:31 | 36.93099 | -120.02083 | 37035 ft | 455 kts | 162° |
| 2026-05-08 00:32 | 36.87119 | -119.99493 | 37031 ft | 455 kts | 162° |
| 2026-05-08 00:32 | 36.81125 | -119.96904 | 37033 ft | 456 kts | 161° |
| 2026-05-08 00:33 | 36.76107 | -119.94733 | 37036 ft | 456 kts | 161° |
| 2026-05-08 00:33 | 36.70107 | -119.92148 | 37035 ft | 456 kts | 161° |
| 2026-05-08 00:34 | 36.64110 | -119.89570 | 37031 ft | 456 kts | 161° |
| 2026-05-08 00:34 | 36.58102 | -119.86991 | 37031 ft | 457 kts | 161° |
| 2026-05-08 00:35 | 36.52095 | -119.84413 | 37022 ft | 457 kts | 161° |
| 2026-05-08 00:35 | 36.46085 | -119.81838 | 37012 ft | 457 kts | 161° |
| 2026-05-08 00:36 | 36.40065 | -119.79269 | 37015 ft | 457 kts | 161° |
| 2026-05-08 00:36 | 36.34045 | -119.76703 | 37018 ft | 457 kts | 161° |
| 2026-05-08 00:37 | 36.28021 | -119.74148 | 37029 ft | 458 kts | 161° |
| 2026-05-08 00:38 | 36.18981 | -119.70299 | 37022 ft | 458 kts | 161° |
| 2026-05-08 00:38 | 36.12910 | -119.67726 | 37025 ft | 458 kts | 161° |
| 2026-05-08 00:39 | 36.06879 | -119.65170 | 37017 ft | 458 kts | 161° |
| 2026-05-08 00:39 | 36.00807 | -119.62756 | 37006 ft | 458 kts | 168° |
| 2026-05-08 00:40 | 35.94494 | -119.62276 | 36997 ft | 455 kts | 187° |
| 2026-05-08 00:40 | 35.88244 | -119.63513 | 36998 ft | 455 kts | 190° |
| 2026-05-08 00:41 | 35.81992 | -119.64777 | 36998 ft | 456 kts | 190° |
| 2026-05-08 00:41 | 35.75730 | -119.66038 | 36999 ft | 456 kts | 190° |
| 2026-05-08 00:42 | 35.69442 | -119.67155 | 36996 ft | 457 kts | 182° |
| 2026-05-08 00:42 | 35.63143 | -119.66287 | 36999 ft | 458 kts | 163° |
| 2026-05-08 00:43 | 35.57258 | -119.63301 | 36995 ft | 459 kts | 155° |
| 2026-05-08 00:43 | 35.51437 | -119.60083 | 36995 ft | 459 kts | 156° |
| 2026-05-08 00:44 | 35.45599 | -119.56873 | 37006 ft | 460 kts | 156° |
| 2026-05-08 00:44 | 35.39756 | -119.53659 | 37004 ft | 461 kts | 156° |
| 2026-05-08 00:45 | 35.33902 | -119.50437 | 37012 ft | 461 kts | 155° |
| 2026-05-08 00:45 | 35.28051 | -119.47214 | 37014 ft | 461 kts | 156° |
| 2026-05-08 00:46 | 35.22191 | -119.44009 | 37016 ft | 462 kts | 156° |
| 2026-05-08 00:46 | 35.16283 | -119.40785 | 37024 ft | 462 kts | 156° |
| 2026-05-08 00:47 | 35.10413 | -119.37574 | 37022 ft | 462 kts | 156° |
| 2026-05-08 00:47 | 35.04538 | -119.34366 | 37034 ft | 463 kts | 156° |
| 2026-05-08 00:48 | 34.98660 | -119.31158 | 37043 ft | 463 kts | 156° |
| 2026-05-08 00:48 | 34.92767 | -119.27954 | 37048 ft | 464 kts | 156° |
| 2026-05-08 00:49 | 34.86864 | -119.24752 | 37048 ft | 465 kts | 155° |
| 2026-05-08 00:49 | 34.80952 | -119.21547 | 37049 ft | 465 kts | 156° |
| 2026-05-08 00:50 | 34.75037 | -119.18347 | 37044 ft | 465 kts | 155° |
| 2026-05-08 00:50 | 34.69191 | -119.14968 | 37052 ft | 466 kts | 152° |
| 2026-05-08 00:51 | 34.63476 | -119.11256 | 37046 ft | 466 kts | 151° |
| 2026-05-08 00:51 | 34.57780 | -119.07502 | 37053 ft | 466 kts | 151° |
| 2026-05-08 00:51 | 34.54924 | -119.05651 | 36720 ft | 466 kts | 151° |
| 2026-05-08 00:52 | 34.52039 | -119.03788 | 35631 ft | 474 kts | 151° |
| 2026-05-08 00:52 | 34.49120 | -119.01902 | 34776 ft | 475 kts | 151° |
| 2026-05-08 00:52 | 34.46215 | -119.00027 | 34070 ft | 472 kts | 151° |
| 2026-05-08 00:52 | 34.43321 | -118.98154 | 33221 ft | 471 kts | 150° |
| 2026-05-08 00:53 | 34.40443 | -118.96266 | 32454 ft | 469 kts | 150° |
| 2026-05-08 00:53 | 34.37596 | -118.94377 | 31777 ft | 465 kts | 150° |
| 2026-05-08 00:53 | 34.34773 | -118.92492 | 31148 ft | 461 kts | 150° |
| 2026-05-08 00:53 | 34.31976 | -118.90621 | 30545 ft | 457 kts | 149° |
| 2026-05-08 00:54 | 34.29203 | -118.88768 | 29919 ft | 453 kts | 149° |
| 2026-05-08 00:54 | 34.26465 | -118.86945 | 28865 ft | 445 kts | 150° |
| 2026-05-08 00:54 | 34.23769 | -118.85172 | 27819 ft | 439 kts | 152° |
| 2026-05-08 00:54 | 34.21054 | -118.83850 | 26889 ft | 434 kts | 161° |
| 2026-05-08 00:55 | 34.18206 | -118.82729 | 25921 ft | 428 kts | 161° |
| 2026-05-08 00:55 | 34.13280 | -118.80785 | 24325 ft | 418 kts | 161° |
| 2026-05-08 00:55 | 34.10512 | -118.79689 | 23441 ft | 412 kts | 161° |
| 2026-05-08 00:56 | 34.07813 | -118.78620 | 22474 ft | 407 kts | 161° |
| 2026-05-08 00:56 | 34.05133 | -118.77567 | 21586 ft | 401 kts | 161° |
| 2026-05-08 00:56 | 34.02492 | -118.76546 | 20726 ft | 396 kts | 161° |
| 2026-05-08 00:56 | 33.99815 | -118.75519 | 19870 ft | 390 kts | 161° |
| 2026-05-08 00:57 | 33.97322 | -118.74562 | 19083 ft | 385 kts | 161° |
| 2026-05-08 00:57 | 33.94793 | -118.73587 | 18292 ft | 379 kts | 161° |
| 2026-05-08 00:57 | 33.92295 | -118.72622 | 17501 ft | 373 kts | 161° |
| 2026-05-08 00:57 | 33.89844 | -118.71673 | 17046 ft | 369 kts | 161° |
| 2026-05-08 00:58 | 33.87410 | -118.70728 | 16565 ft | 366 kts | 161° |
| 2026-05-08 00:58 | 33.84993 | -118.69794 | 16091 ft | 364 kts | 161° |
| 2026-05-08 00:58 | 33.82582 | -118.68865 | 15612 ft | 364 kts | 161° |
| 2026-05-08 00:58 | 33.80169 | -118.67937 | 15109 ft | 364 kts | 161° |
| 2026-05-08 00:59 | 33.77772 | -118.67012 | 14706 ft | 360 kts | 160° |
| 2026-05-08 00:59 | 33.75348 | -118.66094 | 14279 ft | 358 kts | 163° |
| 2026-05-08 00:59 | 33.72889 | -118.65570 | 13775 ft | 360 kts | 173° |
| 2026-05-08 00:59 | 33.70414 | -118.65271 | 13361 ft | 356 kts | 173° |
| 2026-05-08 01:00 | 33.67959 | -118.64966 | 12878 ft | 354 kts | 173° |
| 2026-05-08 01:00 | 33.65513 | -118.64657 | 12392 ft | 352 kts | 173° |
| 2026-05-08 01:00 | 33.63107 | -118.64217 | 11928 ft | 349 kts | 163° |
| 2026-05-08 01:00 | 33.60887 | -118.63109 | 11472 ft | 344 kts | 147° |
| 2026-05-08 01:01 | 33.59016 | -118.61360 | 10991 ft | 340 kts | 132° |
| 2026-05-08 01:01 | 33.57634 | -118.59149 | 10779 ft | 320 kts | 117° |
| 2026-05-08 01:01 | 33.56633 | -118.56858 | 10416 ft | 304 kts | 115° |
| 2026-05-08 01:01 | 33.55667 | -118.54637 | 9970 ft | 296 kts | 115° |
| 2026-05-08 01:02 | 33.54496 | -118.51951 | 9828 ft | 297 kts | 115° |
| 2026-05-08 01:02 | 33.53767 | -118.50267 | 9571 ft | 296 kts | 115° |
| 2026-05-08 01:02 | 33.52836 | -118.48077 | 9245 ft | 295 kts | 111° |
| 2026-05-08 01:02 | 33.52233 | -118.45741 | 8913 ft | 293 kts | 97° |
| 2026-05-08 01:03 | 33.52084 | -118.43325 | 8545 ft | 290 kts | 90° |
| 2026-05-08 01:03 | 33.52026 | -118.40905 | 8184 ft | 291 kts | 90° |
| 2026-05-08 01:03 | 33.51963 | -118.38482 | 7827 ft | 291 kts | 90° |
| 2026-05-08 01:03 | 33.51899 | -118.36063 | 7458 ft | 291 kts | 90° |
| 2026-05-08 01:04 | 33.51928 | -118.33648 | 7095 ft | 289 kts | 81° |
| 2026-05-08 01:04 | 33.52410 | -118.31307 | 6522 ft | 294 kts | 68° |
| 2026-05-08 01:04 | 33.53151 | -118.29023 | 6119 ft | 292 kts | 67° |
| 2026-05-08 01:04 | 33.53884 | -118.26762 | 5619 ft | 287 kts | 67° |
| 2026-05-08 01:05 | 33.54574 | -118.24606 | 5414 ft | 266 kts | 67° |
| 2026-05-08 01:05 | 33.55212 | -118.22616 | 5288 ft | 248 kts | 67° |
| 2026-05-08 01:05 | 33.55826 | -118.20702 | 5177 ft | 245 kts | 67° |
| 2026-05-08 01:05 | 33.56436 | -118.18799 | 5070 ft | 245 kts | 66° |
| 2026-05-08 01:06 | 33.57198 | -118.16996 | 4984 ft | 240 kts | 53° |
| 2026-05-08 01:06 | 33.58137 | -118.15332 | 4988 ft | 242 kts | 53° |
| 2026-05-08 01:06 | 33.59074 | -118.13658 | 4989 ft | 242 kts | 53° |
| 2026-05-08 01:06 | 33.60009 | -118.11984 | 4987 ft | 242 kts | 53° |
| 2026-05-08 01:07 | 33.60956 | -118.10284 | 4998 ft | 242 kts | 53° |
| 2026-05-08 01:07 | 33.61893 | -118.08605 | 5000 ft | 242 kts | 53° |
| 2026-05-08 01:07 | 33.62818 | -118.06943 | 5000 ft | 243 kts | 53° |
| 2026-05-08 01:07 | 33.63766 | -118.05235 | 5003 ft | 243 kts | 53° |
| 2026-05-08 01:08 | 33.64705 | -118.03548 | 5006 ft | 243 kts | 53° |
| 2026-05-08 01:08 | 33.65643 | -118.01860 | 5004 ft | 243 kts | 53° |
| 2026-05-08 01:08 | 33.66579 | -118.00171 | 5008 ft | 243 kts | 53° |
| 2026-05-08 01:08 | 33.67514 | -117.98481 | 5009 ft | 243 kts | 53° |
| 2026-05-08 01:09 | 33.68449 | -117.96789 | 5008 ft | 242 kts | 53° |
| 2026-05-08 01:09 | 33.69424 | -117.95144 | 5008 ft | 241 kts | 43° |
| 2026-05-08 01:09 | 33.70722 | -117.93903 | 4834 ft | 239 kts | 24° |
| 2026-05-08 01:09 | 33.72193 | -117.92982 | 4497 ft | 238 kts | 23° |
| 2026-05-08 01:10 | 33.73657 | -117.92065 | 4184 ft | 236 kts | 24° |
| 2026-05-08 01:10 | 33.75109 | -117.91158 | 3878 ft | 235 kts | 24° |
| 2026-05-08 01:10 | 33.76555 | -117.90256 | 3576 ft | 233 kts | 24° |
| 2026-05-08 01:10 | 33.77955 | -117.89278 | 3273 ft | 235 kts | 37° |
| 2026-05-08 01:11 | 33.78915 | -117.87697 | 2949 ft | 238 kts | 68° |
| 2026-05-08 01:11 | 33.79125 | -117.85737 | 2663 ft | 239 kts | 98° |
| 2026-05-08 01:11 | 33.78531 | -117.83897 | 2335 ft | 238 kts | 128° |
| 2026-05-08 01:11 | 33.77307 | -117.82628 | 2012 ft | 232 kts | 156° |
| 2026-05-08 01:12 | 33.75776 | -117.82197 | 1713 ft | 222 kts | 182° |
| 2026-05-08 01:12 | 33.74354 | -117.82591 | 1498 ft | 201 kts | 206° |
| 2026-05-08 01:12 | 33.73181 | -117.83326 | 1210 ft | 177 kts | 208° |
| 2026-05-08 01:12 | 33.72160 | -117.83973 | 1036 ft | 155 kts | 208° |
| 2026-05-08 01:13 | 33.71234 | -117.84557 | 976 ft | 148 kts | 208° |
| 2026-05-08 01:13 | 33.70323 | -117.85150 | 659 ft | 145 kts | 208° |
| 2026-05-08 01:13 | 33.69457 | -117.85713 | 404 ft | 139 kts | 208° |
| 2026-05-08 01:13 | 33.68593 | -117.86237 | 195 ft | 136 kts | 207° |
| 2026-05-08 01:14 | 33.67772 | -117.86754 | 56 ft | 125 kts | 210° |
| 2026-05-08 01:14 | 33.67177 | -117.87134 | 56 ft | 56 kts | 208° |
| 2026-05-08 01:14 | 33.66975 | -117.87213 | 55 ft | 15 kts | 162° |
| 2026-05-08 01:14 | 33.66931 | -117.87183 | 57 ft | 1 kts | 138° |
| 2026-05-08 01:15 | 33.66928 | -117.87180 | 57 ft | 0 kts | 138° |
| 2026-05-08 01:16 | 33.66909 | -117.87145 | 58 ft | 15 kts | 108° |
| 2026-05-08 01:16 | 33.66960 | -117.87047 | 58 ft | 14 kts | 40° |
| 2026-05-08 01:16 | 33.67034 | -117.86972 | 57 ft | 15 kts | 40° |
| 2026-05-08 01:16 | 33.67145 | -117.86861 | 56 ft | 22 kts | 35° |
| 2026-05-08 01:17 | 33.67252 | -117.86789 | 54 ft | 17 kts | 27° |
| 2026-05-08 01:17 | 33.67334 | -117.86702 | 52 ft | 15 kts | 40° |
| 2026-05-08 01:17 | 33.67422 | -117.86642 | 55 ft | 15 kts | 28° |
| 2026-05-08 01:17 | 33.67528 | -117.86575 | 55 ft | 15 kts | 28° |
| 2026-05-08 01:18 | 33.67599 | -117.86530 | 52 ft | 11 kts | 27° |
| 2026-05-08 01:18 | 33.67629 | -117.86484 | 55 ft | 5 kts | 83° |
| 2026-05-08 01:18 | 33.67617 | -117.86454 | 55 ft | 4 kts | 119° |
| 2026-05-08 01:18 | 33.67613 | -117.86446 | 52 ft | 0 kts | 119° |
| 2026-05-08 01:19 | 33.67613 | -117.86445 | 52 ft | 0 kts | 119° |